Time;durP1;ratioP1;P1;durP2;ratioP2;P2;SDS_P1;SDS_P2;PMS_P1;PMS_P2;Temp;Humidity;BMP_temperature;BMP_pressure;BME280_temperature;BME280_humidity;BME280_pressure;Samples;Min_cycle;Max_cycle;Signal;HPM_P1;HPM_P2
2023/09/25 00:00:18;113779.00;0.38;197.35;12397.00;0.04;22.10;;;;;12.80;1.00;;;;;;2251315;61;1996;-87
2023/09/25 00:02:45;0.00;0.00;0.62;0.00;0.00;0.62;;;;;12.70;1.00;;;;;;2251368;61;1028;-87
2023/09/25 00:05:11;0.00;0.00;0.62;0.00;0.00;0.62;;;;;12.70;1.00;;;;;;2251362;61;1081;-87
2023/09/25 00:07:40;0.00;0.00;0.62;0.00;0.00;0.62;;;;;12.70;1.00;;;;;;2251416;61;1043;-87
2023/09/25 00:10:08;73301.00;0.24;127.46;0.00;0.00;0.62;;;;;12.80;1.00;;;;;;2251294;61;1367;-87
2023/09/25 00:12:35;93642.00;0.31;162.60;0.00;0.00;0.62;;;;;12.80;1.00;;;;;;2251369;61;1164;-87
2023/09/25 00:15:05;65626.00;0.22;114.20;0.00;0.00;0.62;;;;;12.60;1.00;;;;;;2251378;61;920;-88
2023/09/25 00:17:32;0.00;0.00;0.62;0.00;0.00;0.62;;;;;12.50;1.00;;;;;;2251393;61;1111;-86
2023/09/25 00:19:58;44454.00;0.15;77.59;0.00;0.00;0.62;;;;;12.40;1.00;;;;;;2251312;61;1916;-86
2023/09/25 00:22:25;152782.00;0.51;264.60;37241.00;0.12;65.11;;;;;12.60;1.00;;;;;;2251347;61;1135;-88
2023/09/25 00:24:54;8311.00;0.03;15.02;0.00;0.00;0.62;;;;;12.50;1.00;;;;;;2251287;61;934;-88
2023/09/25 00:27:21;125801.00;0.42;218.09;43593.00;0.15;76.10;;;;;12.40;1.00;;;;;;2251583;61;1079;-87
2023/09/25 00:29:48;161689.00;0.54;279.95;0.00;0.00;0.62;;;;;12.40;1.00;;;;;;2252084;61;1423;-87
2023/09/25 00:32:15;202464.00;0.67;350.16;0.00;0.00;0.62;;;;;12.50;1.00;;;;;;2251911;61;1625;-88
2023/09/25 00:34:42;0.00;0.00;0.62;0.00;0.00;0.62;;;;;12.70;1.00;;;;;;2251981;61;1122;-89
2023/09/25 00:37:09;178017.00;0.59;308.07;0.00;0.00;0.62;;;;;12.70;1.00;;;;;;2252016;61;1174;-87
2023/09/25 00:39:36;127761.00;0.43;221.47;0.00;0.00;0.62;;;;;12.60;1.00;;;;;;2251866;61;1920;-87
2023/09/25 00:42:05;203491.00;0.68;351.93;0.00;0.00;0.62;;;;;12.50;1.00;;;;;;2251837;61;1723;-85
2023/09/25 00:44:32;9991.00;0.03;17.93;0.00;0.00;0.62;;;;;12.40;1.00;;;;;;2251728;61;1701;-88
2023/09/25 00:46:59;0.00;0.00;0.62;0.00;0.00;0.62;;;;;12.30;1.00;;;;;;2251780;61;1042;-88
2023/09/25 00:49:27;0.00;0.00;0.62;0.00;0.00;0.62;;;;;12.20;1.00;;;;;;2251594;61;1246;-88
2023/09/25 00:51:55;24899.00;0.08;43.75;0.00;0.00;0.62;;;;;12.30;1.00;;;;;;2251727;61;1047;-88
2023/09/25 00:54:22;89121.00;0.30;154.79;0.00;0.00;0.62;;;;;12.20;1.00;;;;;;2251697;61;1009;-86
2023/09/25 00:56:49;50471.00;0.17;88.00;0.00;0.00;0.62;;;;;12.20;1.00;;;;;;2251711;61;1284;-88
2023/09/25 00:59:18;14141.00;0.05;25.12;0.00;0.00;0.62;;;;;12.10;1.00;;;;;;2251643;61;1341;-86
2023/09/25 01:01:45;628.00;0.00;1.71;0.00;0.00;0.62;;;;;12.00;1.00;;;;;;2251500;61;2019;-89
2023/09/25 01:04:12;78652.00;0.26;136.71;0.00;0.00;0.62;;;;;12.00;1.00;;;;;;2251401;61;1114;-86
2023/09/25 01:06:43;59419.00;0.20;103.47;0.00;0.00;0.62;;;;;12.10;1.00;;;;;;2251625;61;1230;-86
2023/09/25 01:09:12;39998.00;0.13;69.88;0.00;0.00;0.62;;;;;12.10;1.00;;;;;;2251623;61;1722;-87
2023/09/25 01:11:39;42758.00;0.14;74.66;0.00;0.00;0.62;;;;;12.10;1.00;;;;;;2251612;61;1433;-85
2023/09/25 01:14:06;98304.00;0.33;170.64;0.00;0.00;0.62;;;;;12.10;1.00;;;;;;2251636;61;931;-86
2023/09/25 01:16:35;1292.00;0.00;2.86;0.00;0.00;0.62;;;;;11.80;1.00;;;;;;2251596;61;1094;-88
2023/09/25 01:19:03;6661.00;0.02;12.16;0.00;0.00;0.62;;;;;11.80;1.00;;;;;;2251632;61;1129;-87
2023/09/25 01:21:32;276954.00;0.92;478.30;12381.00;0.04;22.07;;;;;11.90;1.00;;;;;;2251535;61;1929;-87
2023/09/25 01:24:02;238272.00;0.79;411.78;0.00;0.00;0.62;;;;;12.00;1.00;;;;;;2251598;61;1110;-86
2023/09/25 01:26:29;482.00;0.00;1.46;0.00;0.00;0.62;;;;;12.30;1.00;;;;;;2251602;61;1179;-86
2023/09/25 01:28:56;153228.00;0.51;265.37;0.00;0.00;0.62;;;;;12.10;1.00;;;;;;2251630;61;930;-88
2023/09/25 01:31:23;55714.00;0.19;97.07;0.00;0.00;0.62;;;;;12.10;1.00;;;;;;2251572;61;1744;-86
2023/09/25 01:33:50;194197.00;0.65;335.93;0.00;0.00;0.62;;;;;12.10;1.00;;;;;;2251668;61;951;-85
2023/09/25 01:36:17;189288.00;0.63;327.48;0.00;0.00;0.62;;;;;12.20;1.00;;;;;;2251577;61;1851;-87
2023/09/25 01:38:46;232510.00;0.78;401.87;0.00;0.00;0.62;;;;;12.40;1.00;;;;;;2251534;61;1078;-86
2023/09/25 01:41:15;112323.00;0.37;194.84;14294.00;0.05;25.39;;;;;12.30;1.00;;;;;;2251513;61;2005;-90
2023/09/25 01:43:43;234771.00;0.78;405.76;0.00;0.00;0.62;;;;;12.40;1.00;;;;;;2251654;61;1029;-86
2023/09/25 01:46:10;140757.00;0.47;243.88;0.00;0.00;0.62;;;;;12.20;1.00;;;;;;2251661;61;1036;-88
2023/09/25 01:48:37;27647.00;0.09;48.51;0.00;0.00;0.62;;;;;12.20;1.00;;;;;;2251630;61;1135;-88
2023/09/25 01:51:10;108704.00;0.36;188.59;0.00;0.00;0.62;;;;;12.30;1.00;;;;;;2251476;61;1416;-88
2023/09/25 01:53:36;102037.00;0.34;177.09;0.00;0.00;0.62;;;;;12.30;1.00;;;;;;2251437;61;919;-88
2023/09/25 01:56:11;248230.00;0.83;428.91;46027.00;0.15;80.31;;;;;12.20;1.00;;;;;;2251509;61;1678;-88
2023/09/25 01:58:40;53274.00;0.18;92.85;0.00;0.00;0.62;;;;;11.80;1.00;;;;;;2251549;61;1145;-89
2023/09/25 02:01:07;82937.00;0.28;144.11;0.00;0.00;0.62;;;;;11.80;1.00;;;;;;2251486;61;2113;-89
2023/09/25 02:03:33;11151.00;0.04;19.94;0.00;0.00;0.62;;;;;11.90;1.00;;;;;;2251622;61;1041;-88
2023/09/25 02:06:00;220058.00;0.73;380.44;15792.00;0.05;27.98;;;;;11.90;1.00;;;;;;2251582;61;998;-88
2023/09/25 02:08:28;173971.00;0.58;301.11;0.00;0.00;0.62;;;;;12.00;1.00;;;;;;2251510;61;1525;-86
2023/09/25 02:10:55;9980.00;0.03;17.91;0.00;0.00;0.62;;;;;11.90;1.00;;;;;;2251499;61;1383;-87
2023/09/25 02:13:21;144250.00;0.48;249.90;0.00;0.00;0.62;;;;;12.10;1.00;;;;;;2251548;61;1003;-88
2023/09/25 02:15:51;46593.00;0.16;81.29;0.00;0.00;0.62;;;;;11.90;1.00;;;;;;2251405;61;1590;-87
2023/09/25 02:18:18;62520.00;0.21;108.83;0.00;0.00;0.62;;;;;11.90;1.00;;;;;;2251470;61;1086;-85
2023/09/25 02:20:45;21112.00;0.07;37.20;0.00;0.00;0.62;;;;;11.90;1.00;;;;;;2251349;61;1998;-88
2023/09/25 02:23:12;27771.00;0.09;48.72;0.00;0.00;0.62;;;;;11.90;1.00;;;;;;2251517;61;1115;-86
2023/09/25 02:25:39;96935.00;0.32;168.28;0.00;0.00;0.62;;;;;12.00;1.00;;;;;;2251505;61;1039;-88
2023/09/25 02:28:06;56290.00;0.19;98.06;0.00;0.00;0.62;;;;;12.00;1.00;;;;;;2251360;61;1157;-86
2023/09/25 02:30:33;88460.00;0.29;153.65;0.00;0.00;0.62;;;;;12.00;1.00;;;;;;2251341;61;1394;-86
2023/09/25 02:33:01;498.00;0.00;1.48;0.00;0.00;0.62;;;;;12.20;1.00;;;;;;2251448;61;1138;-87
2023/09/25 02:35:28;95580.00;0.32;165.94;0.00;0.00;0.62;;;;;12.00;1.00;;;;;;2251460;61;995;-88
2023/09/25 02:37:55;106593.00;0.36;184.95;0.00;0.00;0.62;;;;;12.00;1.00;;;;;;2251399;61;1099;-87
2023/09/25 02:40:22;162288.00;0.54;280.98;0.00;0.00;0.62;;;;;11.90;1.00;;;;;;2251292;61;2001;-89
2023/09/25 02:42:49;29416.00;0.10;51.57;0.00;0.00;0.62;;;;;11.80;1.00;;;;;;2251398;61;1063;-87
2023/09/25 02:45:16;84156.00;0.28;146.22;0.00;0.00;0.62;;;;;11.80;1.00;;;;;;2251369;61;1110;-87
2023/09/25 02:47:43;57075.00;0.19;99.42;0.00;0.00;0.62;;;;;11.60;1.00;;;;;;2251370;61;994;-85
2023/09/25 02:50:14;20640.00;0.07;36.38;0.00;0.00;0.62;;;;;11.50;1.00;;;;;;2251108;61;1322;-85
2023/09/25 02:52:42;12728.00;0.04;22.68;0.00;0.00;0.62;;;;;11.50;1.00;;;;;;2251320;61;986;-86
2023/09/25 02:55:10;70215.00;0.23;122.13;0.00;0.00;0.62;;;;;11.40;1.00;;;;;;2251119;61;1722;-86
2023/09/25 02:57:37;81061.00;0.27;140.87;0.00;0.00;0.62;;;;;11.50;1.00;;;;;;2251286;61;1567;-85
2023/09/25 03:00:08;12735.00;0.04;22.69;0.00;0.00;0.62;;;;;11.40;1.00;;;;;;2251309;61;2001;-87
2023/09/25 03:02:35;730.00;0.00;1.89;0.00;0.00;0.62;;;;;11.30;1.00;;;;;;2251515;61;1038;-86
2023/09/25 03:05:04;10653.00;0.04;19.08;0.00;0.00;0.62;;;;;11.20;1.00;;;;;;2251667;61;999;-87
2023/09/25 03:07:33;0.00;0.00;0.62;0.00;0.00;0.62;;;;;11.00;1.00;;;;;;2251534;61;1193;-86
2023/09/25 03:09:59;103450.00;0.34;179.53;0.00;0.00;0.62;;;;;11.10;1.00;;;;;;2251561;61;1440;-86
2023/09/25 03:12:30;35846.00;0.12;62.70;0.00;0.00;0.62;;;;;11.30;1.00;;;;;;2251583;61;991;-87
2023/09/25 03:14:56;31330.00;0.10;54.89;0.00;0.00;0.62;;;;;11.30;1.00;;;;;;2251599;61;1102;-88
2023/09/25 03:17:24;66506.00;0.22;115.72;0.00;0.00;0.62;;;;;11.30;1.00;;;;;;2251642;61;964;-87
2023/09/25 03:19:52;34812.00;0.12;60.91;0.00;0.00;0.62;;;;;11.10;1.00;;;;;;2251439;61;1755;-86
2023/09/25 03:22:19;101808.00;0.34;176.69;0.00;0.00;0.62;;;;;11.10;1.00;;;;;;2251495;61;2021;-86
2023/09/25 03:24:48;104509.00;0.35;181.35;0.00;0.00;0.62;;;;;11.20;1.00;;;;;;2251525;61;913;-85
2023/09/25 03:27:15;217675.00;0.73;376.34;24137.00;0.08;42.43;;;;;11.30;1.00;;;;;;2251615;61;1040;-86
2023/09/25 03:29:42;42421.00;0.14;74.08;0.00;0.00;0.62;;;;;11.30;1.00;;;;;;2251513;61;1371;-88
2023/09/25 03:32:09;95611.00;0.32;166.00;0.00;0.00;0.62;;;;;10.80;1.00;;;;;;2251572;61;1015;-86
2023/09/25 03:34:35;136259.00;0.45;236.12;0.00;0.00;0.62;;;;;10.70;1.00;;;;;;2251537;61;1001;-86
2023/09/25 03:37:02;169746.00;0.57;293.83;0.00;0.00;0.62;;;;;10.70;1.00;;;;;;2251603;61;1109;-87
2023/09/25 03:39:29;0.00;0.00;0.62;0.00;0.00;0.62;;;;;10.80;1.00;;;;;;2251500;61;1411;-86
2023/09/25 03:41:57;137289.00;0.46;237.90;0.00;0.00;0.62;;;;;10.50;1.00;;;;;;2251435;61;1990;-87
2023/09/25 03:44:24;132063.00;0.44;228.89;0.00;0.00;0.62;;;;;10.50;1.00;;;;;;2251552;61;1113;-87
2023/09/25 03:46:52;27570.00;0.09;48.38;0.00;0.00;0.62;;;;;10.70;1.00;;;;;;2251596;61;1007;-87
2023/09/25 03:49:18;107222.00;0.36;186.04;0.00;0.00;0.62;;;;;10.70;1.00;;;;;;2251537;61;1415;-87
2023/09/25 03:51:45;403.00;0.00;1.32;0.00;0.00;0.62;;;;;10.70;1.00;;;;;;2251503;61;1077;-87
2023/09/25 03:54:12;113093.00;0.38;196.17;0.00;0.00;0.62;;;;;10.70;1.00;;;;;;2251500;61;1038;-87
2023/09/25 03:56:39;0.00;0.00;0.62;0.00;0.00;0.62;;;;;10.70;1.00;;;;;;2251424;61;1079;-86
2023/09/25 03:59:07;163336.00;0.54;282.79;0.00;0.00;0.62;;;;;10.70;1.00;;;;;;2251506;61;1561;-85
2023/09/25 04:01:34;261895.00;0.87;452.41;33792.00;0.11;59.15;;;;;10.90;1.00;;;;;;2251735;61;2239;-86
2023/09/25 04:04:01;33162.00;0.11;58.06;0.00;0.00;0.62;;;;;10.90;1.00;;;;;;2252361;61;1103;-87
2023/09/25 04:06:28;43825.00;0.15;76.51;0.00;0.00;0.62;;;;;10.70;1.00;;;;;;2252274;61;1135;-87
2023/09/25 04:08:55;0.00;0.00;0.62;0.00;0.00;0.62;;;;;10.70;1.00;;;;;;2252404;61;1082;-86
2023/09/25 04:11:21;244799.00;0.82;423.01;0.00;0.00;0.62;;;;;10.90;1.00;;;;;;2252276;61;1662;-86
2023/09/25 04:13:48;110391.00;0.37;191.50;0.00;0.00;0.62;;;;;10.80;1.00;;;;;;2252163;61;1042;-85
2023/09/25 04:16:17;197083.00;0.66;340.90;49351.00;0.16;86.06;;;;;10.90;1.00;;;;;;2252160;61;2079;-86
2023/09/25 04:18:45;46273.00;0.15;80.74;0.00;0.00;0.62;;;;;10.80;1.00;;;;;;2252184;61;1236;-87
2023/09/25 04:21:14;18776.00;0.06;33.15;0.00;0.00;0.62;;;;;11.00;1.00;;;;;;2252083;61;1978;-87
2023/09/25 04:23:41;45250.00;0.15;78.97;0.00;0.00;0.62;;;;;11.00;1.00;;;;;;2252069;61;1047;-88
2023/09/25 04:26:11;117615.00;0.39;203.97;0.00;0.00;0.62;;;;;10.80;1.00;;;;;;2252199;61;1031;-86
2023/09/25 04:28:38;0.00;0.00;0.62;0.00;0.00;0.62;;;;;11.00;1.00;;;;;;2252073;61;1064;-87
2023/09/25 04:31:06;39504.00;0.13;69.03;0.00;0.00;0.62;;;;;10.70;1.00;;;;;;2252091;61;1376;-86
2023/09/25 04:33:35;33221.00;0.11;58.16;0.00;0.00;0.62;;;;;10.60;1.00;;;;;;2252120;61;1269;-87
2023/09/25 04:36:02;15862.00;0.05;28.10;0.00;0.00;0.62;;;;;10.70;1.00;;;;;;2252068;61;1714;-87
2023/09/25 04:38:30;853.00;0.00;2.10;0.00;0.00;0.62;;;;;10.70;1.00;;;;;;2251998;61;1595;-87
2023/09/25 04:40:57;239.00;0.00;1.03;0.00;0.00;0.62;;;;;10.70;1.00;;;;;;2252009;61;2032;-84
2023/09/25 04:43:24;31152.00;0.10;54.58;0.00;0.00;0.62;;;;;10.40;1.00;;;;;;2252097;61;974;-86
2023/09/25 04:45:52;72071.00;0.24;125.34;0.00;0.00;0.62;;;;;10.20;1.00;;;;;;2252048;61;1030;-86
2023/09/25 04:48:19;0.00;0.00;0.62;0.00;0.00;0.62;;;;;10.40;1.00;;;;;;2252238;61;1292;-87
2023/09/25 04:50:48;35883.00;0.12;62.76;0.00;0.00;0.62;;;;;10.60;1.00;;;;;;2251655;61;1368;-86
2023/09/25 04:53:15;31872.00;0.11;55.82;0.00;0.00;0.62;;;;;10.50;1.00;;;;;;2252087;61;1016;-87
2023/09/25 04:55:42;831.00;0.00;2.06;0.00;0.00;0.62;;;;;10.50;1.00;;;;;;2251916;61;997;-87
2023/09/25 04:58:09;0.00;0.00;0.62;0.00;0.00;0.62;;;;;10.40;1.00;;;;;;2251938;61;1006;-87
2023/09/25 05:00:36;61438.00;0.20;106.96;0.00;0.00;0.62;;;;;10.40;1.00;;;;;;2252085;61;1324;-87
2023/09/25 05:03:03;50822.00;0.17;88.61;0.00;0.00;0.62;;;;;10.40;1.00;;;;;;2252170;61;2011;-86
2023/09/25 05:05:30;3451.00;0.01;6.60;0.00;0.00;0.62;;;;;10.50;1.00;;;;;;2252261;61;1454;-86
2023/09/25 05:07:59;131118.00;0.44;227.26;0.00;0.00;0.62;;;;;10.50;1.00;;;;;;2252193;61;1031;-85
2023/09/25 05:10:28;0.00;0.00;0.62;0.00;0.00;0.62;;;;;10.50;1.00;;;;;;2252119;61;1274;-85
2023/09/25 05:12:56;212566.00;0.71;367.55;22788.00;0.08;40.10;;;;;10.50;1.00;;;;;;2251797;61;1715;-85
2023/09/25 05:15:24;3017.00;0.01;5.85;0.00;0.00;0.62;;;;;10.40;1.00;;;;;;2252071;61;1032;-85
2023/09/25 05:17:51;0.00;0.00;0.62;0.00;0.00;0.62;;;;;10.40;1.00;;;;;;2252161;61;1724;-86
2023/09/25 05:20:20;50217.00;0.17;87.56;0.00;0.00;0.62;;;;;10.40;1.00;;;;;;2252055;61;1322;-85
2023/09/25 05:22:48;212676.00;0.71;367.74;32498.00;0.11;56.91;;;;;10.40;1.00;;;;;;2252105;61;1965;-84
2023/09/25 05:25:18;9907.00;0.03;17.79;0.00;0.00;0.62;;;;;10.30;1.00;;;;;;2251832;61;1123;-85
2023/09/25 05:27:47;8334.00;0.03;15.06;0.00;0.00;0.62;;;;;10.40;1.00;;;;;;2251880;61;1037;-84
2023/09/25 05:30:17;0.00;0.00;0.62;0.00;0.00;0.62;;;;;10.40;1.00;;;;;;2251876;61;1418;-84
2023/09/25 05:32:46;77730.00;0.26;135.12;0.00;0.00;0.62;;;;;10.30;1.00;;;;;;2251937;61;1240;-85
2023/09/25 05:35:13;77784.00;0.26;135.21;0.00;0.00;0.62;;;;;10.30;1.00;;;;;;2251885;61;1061;-85
2023/09/25 05:37:41;171117.00;0.57;296.19;24555.00;0.08;43.16;;;;;10.20;1.00;;;;;;2251885;61;1030;-84
2023/09/25 05:40:10;23657.00;0.08;41.60;0.00;0.00;0.62;;;;;10.30;1.00;;;;;;2251846;61;1320;-85
2023/09/25 05:42:39;366996.00;1.22;633.07;86302.00;0.29;149.92;;;;;10.20;1.00;;;;;;2251776;61;1947;-84
2023/09/25 05:45:07;66089.00;0.22;115.00;0.00;0.00;0.62;;;;;10.50;1.00;;;;;;2251847;61;961;-86
2023/09/25 05:47:35;0.00;0.00;0.62;0.00;0.00;0.62;;;;;11.20;1.00;;;;;;2251878;61;1186;-87
2023/09/25 05:50:02;57754.00;0.19;100.59;0.00;0.00;0.62;;;;;12.10;1.00;;;;;;2251789;61;1429;-86
2023/09/25 05:52:29;335509.00;1.12;578.95;127367.00;0.42;220.79;;;;;12.70;1.00;;;;;;2251925;61;1097;-87
2023/09/25 05:54:56;1449.00;0.00;3.13;0.00;0.00;0.62;;;;;13.40;1.00;;;;;;2251716;61;1071;-85
2023/09/25 05:57:23;18770.00;0.06;33.14;0.00;0.00;0.62;;;;;14.10;1.00;;;;;;2251989;61;1082;-86
2023/09/25 05:59:51;77484.00;0.26;134.69;0.00;0.00;0.62;;;;;14.70;1.00;;;;;;2251816;61;1387;-85
2023/09/25 06:02:18;222209.00;0.74;384.14;0.00;0.00;0.62;;;;;15.20;1.00;;;;;;2251877;61;2011;-87
2023/09/25 06:04:46;0.00;0.00;0.62;0.00;0.00;0.62;;;;;15.70;1.00;;;;;;2251802;61;1114;-89
2023/09/25 06:07:14;58986.00;0.20;102.72;0.00;0.00;0.62;;;;;16.10;1.00;;;;;;2251974;61;1650;-88
2023/09/25 06:09:41;0.00;0.00;0.62;0.00;0.00;0.62;;;;;16.00;1.00;;;;;;2251896;61;1602;-89
2023/09/25 06:12:09;52705.00;0.18;91.86;0.00;0.00;0.62;;;;;16.30;1.00;;;;;;2252011;61;1200;-88
2023/09/25 06:14:35;91477.00;0.30;158.86;9828.00;0.03;17.65;;;;;16.80;1.00;;;;;;2251921;61;1091;-87
2023/09/25 06:17:04;28594.00;0.10;50.15;0.00;0.00;0.62;;;;;17.20;1.00;;;;;;2251785;61;1102;-88
2023/09/25 06:19:31;259206.00;0.86;447.78;14966.00;0.05;26.55;;;;;17.90;1.00;;;;;;2251722;61;2215;-86
2023/09/25 06:21:57;13639.00;0.05;24.25;0.00;0.00;0.62;;;;;18.00;1.00;;;;;;2251779;61;1996;-87
2023/09/25 06:24:25;150621.00;0.50;260.88;0.00;0.00;0.62;;;;;18.00;1.00;;;;;;2251618;61;1056;-87
2023/09/25 06:26:53;50279.00;0.17;87.67;0.00;0.00;0.62;;;;;18.50;1.00;;;;;;2251633;61;1151;-88
2023/09/25 06:29:22;131293.00;0.44;227.56;0.00;0.00;0.62;;;;;19.00;1.00;;;;;;2251729;61;1277;-87
2023/09/25 06:31:49;29264.00;0.10;51.31;0.00;0.00;0.62;;;;;19.20;1.00;;;;;;2251755;61;1084;-87
2023/09/25 06:34:17;0.00;0.00;0.62;0.00;0.00;0.62;;;;;19.50;1.00;;;;;;2251788;61;1692;-87
2023/09/25 06:36:44;114551.00;0.38;198.68;0.00;0.00;0.62;;;;;19.60;1.00;;;;;;2251704;61;1620;-86
2023/09/25 06:39:11;157556.00;0.53;272.83;0.00;0.00;0.62;;;;;19.50;1.00;;;;;;2251726;61;1107;-86
2023/09/25 06:41:38;0.00;0.00;0.62;0.00;0.00;0.62;;;;;19.00;1.00;;;;;;2251671;61;2001;-86
2023/09/25 06:44:05;87298.00;0.29;151.64;0.00;0.00;0.62;;;;;19.00;1.00;;;;;;2251764;61;1295;-87
2023/09/25 06:46:33;24579.00;0.08;43.20;0.00;0.00;0.62;;;;;19.20;1.00;;;;;;2251670;61;1763;-87
2023/09/25 06:49:00;114169.00;0.38;198.02;0.00;0.00;0.62;;;;;19.50;1.00;;;;;;2251730;61;920;-88
2023/09/25 06:51:28;121371.00;0.40;210.45;0.00;0.00;0.62;;;;;19.60;1.00;;;;;;2251679;61;1387;-88
2023/09/25 06:53:55;125389.00;0.42;217.38;0.00;0.00;0.62;;;;;19.80;1.00;;;;;;2251644;61;1027;-86
2023/09/25 06:56:22;954.00;0.00;2.27;0.00;0.00;0.62;;;;;19.40;1.00;;;;;;2251714;61;1005;-85
2023/09/25 06:58:51;38985.00;0.13;68.13;0.00;0.00;0.62;;;;;19.80;1.00;;;;;;2251658;61;927;-87
2023/09/25 07:01:18;20137.00;0.07;35.51;0.00;0.00;0.62;;;;;19.90;1.00;;;;;;2251680;61;1406;-88
2023/09/25 07:03:45;166927.00;0.56;288.97;0.00;0.00;0.62;;;;;19.60;1.00;;;;;;2251612;61;1013;-87
2023/09/25 07:06:12;264099.00;0.88;456.20;57926.00;0.19;100.89;;;;;19.40;1.00;;;;;;2251619;61;1142;-85
2023/09/25 07:08:41;27335.00;0.09;47.97;0.00;0.00;0.62;;;;;19.10;1.00;;;;;;2251640;61;1582;-84
2023/09/25 07:11:08;255444.00;0.85;441.31;50402.00;0.17;87.88;;;;;19.20;1.00;;;;;;2251629;61;1296;-87
2023/09/25 07:13:35;37973.00;0.13;66.38;0.00;0.00;0.62;;;;;19.40;1.00;;;;;;2251674;61;997;-85
2023/09/25 07:16:05;0.00;0.00;0.62;0.00;0.00;0.62;;;;;19.80;1.00;;;;;;2251576;61;1505;-87
2023/09/25 07:18:33;5930.00;0.02;10.90;0.00;0.00;0.62;;;;;20.10;1.00;;;;;;2251664;61;1039;-85
2023/09/25 07:21:00;2437.00;0.01;4.84;0.00;0.00;0.62;;;;;20.10;1.00;;;;;;2251454;61;1392;-87
2023/09/25 07:23:26;140205.00;0.47;242.92;0.00;0.00;0.62;;;;;19.90;1.00;;;;;;2251503;61;1997;-86
2023/09/25 07:26:02;577.00;0.00;1.62;0.00;0.00;0.62;;;;;19.90;1.00;;;;;;2251587;61;1039;-86
2023/09/25 07:28:29;0.00;0.00;0.62;0.00;0.00;0.62;;;;;20.30;1.00;;;;;;2251492;61;1005;-86
2023/09/25 07:30:58;42006.00;0.14;73.36;0.00;0.00;0.62;;;;;20.30;1.00;;;;;;2251460;61;1321;-86
2023/09/25 07:33:25;0.00;0.00;0.62;0.00;0.00;0.62;;;;;20.30;1.00;;;;;;2251565;61;1593;-86
2023/09/25 07:35:52;155802.00;0.52;269.81;0.00;0.00;0.62;;;;;20.40;1.00;;;;;;2251595;61;919;-85
2023/09/25 07:38:19;125815.00;0.42;218.11;0.00;0.00;0.62;;;;;20.40;1.00;;;;;;2252243;61;1020;-86
2023/09/25 07:40:47;749.00;0.00;1.92;0.00;0.00;0.62;;;;;20.60;1.00;;;;;;2252131;61;1243;-84
2023/09/25 07:43:19;74131.00;0.25;128.90;0.00;0.00;0.62;;;;;20.80;1.00;;;;;;2252199;61;1919;-85
2023/09/25 07:45:47;227395.00;0.76;393.07;0.00;0.00;0.62;;;;;21.30;1.00;;;;;;2252256;61;1074;-84
2023/09/25 07:48:14;58469.00;0.19;101.83;0.00;0.00;0.62;;;;;22.00;1.00;;;;;;2252239;61;1051;-86
2023/09/25 07:50:41;154955.00;0.52;268.35;21234.00;0.07;37.41;;;;;22.10;1.00;;;;;;2252154;61;1403;-86
2023/09/25 07:53:07;32308.00;0.11;56.58;0.00;0.00;0.62;;;;;21.90;1.00;;;;;;2252246;61;1069;-86
2023/09/25 07:55:34;0.00;0.00;0.62;0.00;0.00;0.62;;;;;21.80;1.00;;;;;;2252251;61;1007;-86
2023/09/25 07:58:03;118378.00;0.39;205.28;0.00;0.00;0.62;;;;;22.80;1.00;;;;;;2252181;61;1062;-86
2023/09/25 08:00:37;59255.00;0.20;103.19;0.00;0.00;0.62;;;;;22.70;1.00;;;;;;2252108;61;1291;-86
2023/09/25 08:03:05;13703.00;0.05;24.36;0.00;0.00;0.62;;;;;22.50;1.00;;;;;;2252143;61;1924;-86
2023/09/25 08:05:32;0.00;0.00;0.62;0.00;0.00;0.62;;;;;22.20;1.00;;;;;;2252212;61;1147;-86
2023/09/25 08:07:59;148721.00;0.50;257.60;0.00;0.00;0.62;;;;;21.60;1.00;;;;;;2252034;61;1702;-86
2023/09/25 08:10:26;206352.00;0.69;356.86;0.00;0.00;0.62;;;;;21.90;1.00;;;;;;2251965;61;1647;-84
2023/09/25 08:12:53;202171.00;0.67;349.66;0.00;0.00;0.62;;;;;22.00;1.00;;;;;;2252260;61;1572;-86
2023/09/25 08:15:20;0.00;0.00;0.62;0.00;0.00;0.62;;;;;21.60;1.00;;;;;;2252411;61;1043;-89
2023/09/25 08:17:49;0.00;0.00;0.62;0.00;0.00;0.62;;;;;21.40;1.00;;;;;;2252374;61;2031;-88
2023/09/25 08:20:20;522.00;0.00;1.52;0.00;0.00;0.62;;;;;21.30;1.00;;;;;;2252345;61;1391;-88
2023/09/25 08:22:47;38710.00;0.13;67.66;0.00;0.00;0.62;;;;;21.20;1.00;;;;;;2252352;61;1924;-87
2023/09/25 08:25:14;48271.00;0.16;84.20;0.00;0.00;0.62;;;;;21.50;1.00;;;;;;2252365;61;1052;-87
2023/09/25 08:27:42;110458.00;0.37;191.62;0.00;0.00;0.62;;;;;21.80;1.00;;;;;;2252379;61;1037;-86
2023/09/25 08:30:10;26446.00;0.09;46.43;0.00;0.00;0.62;;;;;21.80;1.00;;;;;;2252309;61;1404;-86
2023/09/25 08:32:37;97860.00;0.33;169.88;28816.00;0.10;50.53;;;;;22.50;1.00;;;;;;2252370;61;933;-87
2023/09/25 08:35:09;172871.00;0.58;299.21;28447.00;0.09;49.89;;;;;22.80;1.00;;;;;;2252317;61;1716;-86
2023/09/25 08:37:37;226145.00;0.75;390.92;52575.00;0.18;91.64;;;;;22.00;1.00;;;;;;2252365;61;1123;-87
2023/09/25 08:40:05;55142.00;0.18;96.08;0.00;0.00;0.62;;;;;21.50;1.00;;;;;;2252315;61;1263;-87
2023/09/25 08:42:32;40446.00;0.13;70.66;0.00;0.00;0.62;;;;;21.00;1.00;;;;;;2252273;61;2002;-87
2023/09/25 08:45:02;38698.00;0.13;67.64;0.00;0.00;0.62;;;;;21.30;1.00;;;;;;2252316;61;1112;-87
2023/09/25 08:47:31;148187.00;0.49;256.68;40770.00;0.14;71.22;;;;;20.90;1.00;;;;;;2252108;61;1534;-87
2023/09/25 08:49:58;0.00;0.00;0.62;0.00;0.00;0.62;;;;;20.60;1.00;;;;;;2252202;61;1377;-87
2023/09/25 08:52:27;99314.00;0.33;172.39;0.00;0.00;0.62;;;;;20.00;1.00;;;;;;2252246;61;1104;-86
2023/09/25 08:54:54;0.00;0.00;0.62;0.00;0.00;0.62;;;;;19.80;1.00;;;;;;2252326;61;1058;-87
2023/09/25 08:57:22;11170.00;0.04;19.98;0.00;0.00;0.62;;;;;19.60;1.00;;;;;;2252257;61;1602;-87
2023/09/25 08:59:50;0.00;0.00;0.62;0.00;0.00;0.62;;;;;19.40;1.00;;;;;;2252227;61;1265;-88
2023/09/25 09:02:18;57153.00;0.19;99.55;0.00;0.00;0.62;;;;;19.50;1.00;;;;;;2252260;61;1995;-89
2023/09/25 09:04:45;0.00;0.00;0.62;0.00;0.00;0.62;;;;;19.80;1.00;;;;;;2252287;61;991;-87
2023/09/25 09:07:14;35526.00;0.12;62.15;0.00;0.00;0.62;;;;;20.00;1.00;;;;;;2252305;61;940;-87
2023/09/25 09:09:43;190363.00;0.63;329.33;51056.00;0.17;89.01;;;;;20.20;1.00;;;;;;2252129;61;1591;-88
2023/09/25 09:12:11;0.00;0.00;0.62;0.00;0.00;0.62;;;;;20.30;1.00;;;;;;2252236;61;1041;-87
2023/09/25 09:14:39;0.00;0.00;0.62;0.00;0.00;0.62;;;;;19.80;1.00;;;;;;2252240;61;1095;-87
2023/09/25 09:17:07;0.00;0.00;0.62;0.00;0.00;0.62;;;;;19.80;1.00;;;;;;2252257;61;1092;-86
2023/09/25 09:19:50;0.00;0.00;0.62;0.00;0.00;0.62;;;;;19.90;1.00;;;;;;2252181;61;1283;-87
2023/09/25 09:22:18;0.00;0.00;0.62;0.00;0.00;0.62;;;;;20.00;1.00;;;;;;2252164;61;1990;-87
2023/09/25 09:24:48;0.00;0.00;0.62;0.00;0.00;0.62;;;;;19.90;1.00;;;;;;2252199;61;1093;-88
2023/09/25 09:27:19;0.00;0.00;0.62;0.00;0.00;0.62;;;;;20.10;1.00;;;;;;2252245;61;943;-87
2023/09/25 09:29:47;0.00;0.00;0.62;0.00;0.00;0.62;;;;;20.00;1.00;;;;;;2252138;61;1386;-87
2023/09/25 09:32:14;84448.00;0.28;146.72;18687.00;0.06;33.00;;;;;19.90;1.00;;;;;;2252209;61;1086;-86
2023/09/25 09:34:41;3696.00;0.01;7.03;0.00;0.00;0.62;;;;;19.80;1.00;;;;;;2252150;61;2256;-86
2023/09/25 09:37:09;44235.00;0.15;77.21;0.00;0.00;0.62;;;;;19.50;1.00;;;;;;2252171;61;946;-88
2023/09/25 09:39:37;10363.00;0.03;18.58;0.00;0.00;0.62;;;;;20.00;1.00;;;;;;2252134;61;1310;-87
2023/09/25 09:42:09;0.00;0.00;0.62;0.00;0.00;0.62;;;;;20.10;1.00;;;;;;2252139;61;944;-87
2023/09/25 09:44:36;0.00;0.00;0.62;0.00;0.00;0.62;;;;;20.40;1.00;;;;;;2252088;61;2155;-86
2023/09/25 09:47:05;0.00;0.00;0.62;0.00;0.00;0.62;;;;;20.40;1.00;;;;;;2252137;61;1172;-88
2023/09/25 09:49:36;28684.00;0.10;50.31;0.00;0.00;0.62;;;;;20.40;1.00;;;;;;2252044;61;1259;-87
2023/09/25 09:52:04;0.00;0.00;0.62;0.00;0.00;0.62;;;;;20.30;1.00;;;;;;2252113;61;947;-87
2023/09/25 09:54:36;80809.00;0.27;140.43;0.00;0.00;0.62;;;;;20.50;1.00;;;;;;2252075;61;1094;-87
2023/09/25 09:57:04;0.00;0.00;0.62;0.00;0.00;0.62;;;;;20.70;1.00;;;;;;2252169;61;1018;-86
2023/09/25 09:59:31;44804.00;0.15;78.20;0.00;0.00;0.62;;;;;20.90;1.00;;;;;;2252017;61;1285;-88
2023/09/25 10:01:59;72151.00;0.24;125.48;0.00;0.00;0.62;;;;;21.10;1.00;;;;;;2252123;61;1004;-88
2023/09/25 10:04:27;0.00;0.00;0.62;0.00;0.00;0.62;;;;;21.20;1.00;;;;;;2252005;61;1925;-87
2023/09/25 10:06:59;0.00;0.00;0.62;0.00;0.00;0.62;;;;;21.10;1.00;;;;;;2252113;61;1098;-87
2023/09/25 10:09:27;21473.00;0.07;37.82;0.00;0.00;0.62;;;;;20.80;1.00;;;;;;2252075;61;1397;-87
2023/09/25 10:11:54;119143.00;0.40;206.60;0.00;0.00;0.62;;;;;20.60;1.00;;;;;;2251955;61;1060;-88
2023/09/25 10:14:24;0.00;0.00;0.62;0.00;0.00;0.62;;;;;20.80;1.00;;;;;;2251965;61;1648;-87